Weather at Samarinda Temingdun Airport [CLOSED]

Public forecast

Using degrees Celsius for public forecast. Weather courtesy of forecast.io.

Closest aviation weather report (METAR) to Samarinda Temingdun Airport

Closest report is Sultan Aji Muhammad Sulaiman Sepinggan International Airport, 49.6 nm (91.9 km) SSW.

2024/07/17 12:30 (retrieved 36 minutes ago)

WALL 171230Z 26002KT 9000 SCT018 27/24 Q1009 NOSIG

Closest aviation forecast (TAF) to Samarinda Temingdun Airport

Closest forecast is Aji Pangeran Tumenggung Pranoto International Airport, 8.7 nm (16.0 km) NE.

2024/07/17 12:00 (retrieved 1 hour ago)

TAF WALL 171100Z 1712/1818 18003KT 9999 FEW020 TAF WALS 171100Z 1712/1724 17004KT 9999 SCT020